Date,TemperatureHighF,TemperatureAvgF,TemperatureLowF,DewpointHighF,DewpointAvgF,DewpointLowF,HumidityHigh,HumidityAvg,HumidityLow,PressureMaxIn,PressureMinIn,WindSpeedMaxMPH,WindSpeedAvgMPH,GustSpeedMaxMPH,PrecipitationSumIn
2013-2-1,68,52,35,43,34,25,74,52,33,30.41,30.22,12,2,0,0.00
2013-2-2,73,57,40,52,44,36,90,64,40,30.35,30.20,5,1,0,0.00
2013-2-3,69,56,41,50,40,30,77,58,30,30.38,30.02,9,2,0,0.00
2013-2-4,75,60,47,57,51,43,87,72,45,30.01,29.82,6,2,0,0.01
2013-2-5,77,61,42,47,41,36,87,53,25,30.03,29.91,5,0,0,0.00
2013-2-6,76,64,57,58,54,44,89,72,53,30.00,29.83,7,2,0,0.00
2013-2-7,80,65,54,60,50,36,92,64,25,30.12,29.90,13,2,0,0.01
2013-2-8,66,54,44,42,33,27,71,47,26,30.26,30.11,17,2,0,0.00
2013-2-9,66,57,49,63,52,29,93,85,45,30.12,29.81,11,3,0,0.00
2013-2-10,66,58,52,63,37,24,93,49,24,30.05,29.79,10,2,0,0.51
2013-2-11,56,52,47,45,40,33,90,67,43,30.11,30.00,11,2,0,0.05
2013-2-12,69,54,40,54,40,23,93,64,23,30.14,29.89,11,3,0,0.01
2013-2-13,59,44,31,33,29,25,85,59,28,30.22,30.09,5,1,0,0.00
2013-2-14,70,49,32,38,32,26,85,58,26,30.20,30.06,7,1,0,0.00
2013-2-15,56,45,34,38,33,23,80,62,49,30.47,30.14,14,2,0,0.00
2013-2-16,64,45,26,29,25,20,80,51,25,30.54,30.28,5,1,0,0.00
2013-2-17,68,52,32,50,36,24,77,57,34,30.28,29.98,13,4,0,0.00
2013-2-18,78,64,51,56,41,23,82,51,14,30.12,29.87,13,4,0,0.00
2013-2-19,64,54,44,31,28,25,55,38,24,30.28,30.09,16,4,0,0.00
2013-2-20,65,55,49,61,48,22,94,79,29,30.11,29.66,15,4,0,0.01
2013-2-21,72,61,44,62,37,22,89,48,16,29.91,29.61,15,3,0,0.01
2013-2-22,61,47,39,36,32,26,83,56,34,30.10,29.92,6,2,0,0.00
2013-2-23,70,50,32,38,29,25,79,50,19,30.14,29.93,11,1,0,0.00
2013-2-24,71,56,36,55,45,31,85,67,47,29.95,29.59,12,3,0,0.00
2013-2-25,61,50,40,57,31,21,85,50,28,29.93,29.59,18,7,0,0.00
2013-2-26,67,50,35,28,25,21,65,41,21,30.04,29.89,6,1,0,0.00
2013-2-27,58,48,40,32,24,18,65,40,30,30.31,29.91,15,3,0,0.00
2013-2-28,58,44,32,29,24,19,63,46,25,30.40,30.27,13,2,0,0.00